Time;durP1;ratioP1;P1;durP2;ratioP2;P2;SDS_P1;SDS_P2;PMS_P1;PMS_P2;Temp;Humidity;BMP_temperature;BMP_pressure;BME280_temperature;BME280_humidity;BME280_pressure;Samples;Min_cycle;Max_cycle;Signal;HPM_P1;HPM_P2
2022/05/11 00:01:17;;;;;;;17.82;9.58;;;;;;;7.64;56.67;99773.80;1772037;80;20973;-76
2022/05/11 00:03:44;;;;;;;20.62;8.48;;;;;;;7.66;57.07;99783.34;1771499;80;21017;-76
2022/05/11 00:06:10;;;;;;;15.10;8.98;;;;;;;7.60;57.10;99778.22;1773111;80;21041;-74
2022/05/11 00:08:37;;;;;;;17.05;8.68;;;;;;;7.53;57.40;99781.33;1772259;81;21635;-76
2022/05/11 00:11:04;;;;;;;18.73;8.75;;;;;;;7.52;57.46;99781.87;1772532;81;21244;-77
2022/05/11 00:13:33;;;;;;;17.23;8.58;;;;;;;7.53;57.38;99780.78;1772629;81;21032;-77
2022/05/11 00:16:01;;;;;;;17.17;9.05;;;;;;;7.52;57.59;99785.98;1775521;80;21271;-75
2022/05/11 00:18:28;;;;;;;23.00;9.65;;;;;;;7.51;57.57;99782.98;1771883;80;21012;-75
2022/05/11 00:20:55;;;;;;;19.82;9.18;;;;;;;7.54;57.49;99785.14;1773619;79;20990;-77
2022/05/11 00:23:22;;;;;;;19.15;9.68;;;;;;;7.58;57.59;99780.44;1772442;80;21222;-78
2022/05/11 00:25:53;;;;;;;16.80;8.43;;;;;;;7.61;57.02;99778.50;1775162;80;20985;-75
2022/05/11 00:28:21;;;;;;;15.25;9.18;;;;;;;7.59;57.19;99772.49;1774336;80;21006;-75
2022/05/11 00:30:48;;;;;;;18.05;9.45;;;;;;;7.59;57.26;99776.03;1773785;80;21054;-76
2022/05/11 00:33:17;;;;;;;17.52;8.65;;;;;;;7.55;57.39;99777.20;1781085;80;20985;-76
2022/05/11 00:35:45;;;;;;;18.70;9.20;;;;;;;7.51;57.18;99777.50;1756272;80;21190;-75
2022/05/11 00:38:14;;;;;;;19.57;9.73;;;;;;;7.48;57.25;99780.84;1775629;80;21029;-76
2022/05/11 00:40:48;;;;;;;22.82;9.05;;;;;;;7.48;57.09;99775.91;1777129;80;21034;-71
2022/05/11 00:43:15;;;;;;;;;;;;;;;7.44;56.93;99778.41;1774477;80;21431;-73
2022/05/11 00:45:46;;;;;;;17.80;8.63;;;;;;;7.41;56.92;99774.34;1760488;80;20209;-76
2022/05/11 00:51:01;;;;;;;21.00;9.08;;;;;;;7.32;57.29;99776.66;1772448;80;20986;-74
2022/05/11 00:53:28;;;;;;;16.67;7.90;;;;;;;7.34;57.41;99781.27;1767253;80;20981;-76
2022/05/11 00:55:57;;;;;;;16.20;8.65;;;;;;;7.34;56.94;99777.98;1775686;80;21060;-74
2022/05/11 00:58:30;;;;;;;18.17;8.43;;;;;;;7.32;56.81;99778.02;1774828;80;21032;-74
2022/05/11 01:00:57;;;;;;;20.25;8.90;;;;;;;7.28;56.74;99780.52;1773602;80;21220;-75
2022/05/11 01:03:50;;;;;;;18.45;8.50;;;;;;;7.25;56.49;99781.11;1773755;80;21485;-76
2022/05/11 01:06:17;;;;;;;18.98;8.88;;;;;;;7.20;56.78;99775.11;1768500;80;21033;-76
2022/05/11 01:08:45;;;;;;;20.55;8.85;;;;;;;7.12;57.10;99783.43;1773398;80;21054;-72
2022/05/11 01:11:12;;;;;;;19.70;9.13;;;;;;;7.06;57.58;99779.92;1772500;80;21525;-76
2022/05/11 01:13:39;;;;;;;20.15;9.15;;;;;;;7.03;57.86;99781.05;1774782;80;21505;-77
2022/05/11 01:16:06;;;;;;;27.32;9.28;;;;;;;7.01;57.93;99776.44;1776428;80;21517;-77
2022/05/11 01:18:32;;;;;;;15.80;8.65;;;;;;;7.01;57.68;99781.34;1772580;80;21450;-77
2022/05/11 01:21:01;;;;;;;18.35;9.25;;;;;;;7.00;57.71;99776.97;1778811;80;20974;-76
2022/05/11 01:23:43;;;;;;;20.82;9.78;;;;;;;6.99;57.82;99771.25;1758354;79;20990;-75
2022/05/11 01:26:11;;;;;;;18.87;8.85;;;;;;;6.98;57.67;99773.70;1771539;80;21246;-77
2022/05/11 01:28:44;;;;;;;17.27;8.63;;;;;;;6.95;57.69;99771.55;1775564;80;20990;-73
2022/05/11 01:31:11;;;;;;;21.07;9.30;;;;;;;6.96;57.68;99770.42;1769791;80;20969;-76
2022/05/11 01:33:42;;;;;;;15.45;8.75;;;;;;;6.95;57.87;99774.28;1773353;80;20986;-77
2022/05/11 01:36:17;;;;;;;20.65;8.35;;;;;;;6.96;57.78;99775.11;1775288;80;21002;-75
2022/05/11 01:38:54;;;;;;;20.72;8.35;;;;;;;6.94;57.64;99767.98;1772586;80;21779;-75
2022/05/11 01:41:41;;;;;;;16.52;8.00;;;;;;;6.93;57.80;99770.47;1771721;80;21016;-75
2022/05/11 01:44:14;;;;;;;16.40;8.48;;;;;;;6.94;57.60;99761.70;1773191;80;21056;-74
2022/05/11 01:46:48;;;;;;;19.03;8.73;;;;;;;6.93;57.47;99764.16;1773604;80;20997;-77
2022/05/11 01:49:15;;;;;;;24.72;8.55;;;;;;;6.89;57.58;99761.19;1771556;80;21103;-74
2022/05/11 01:51:42;;;;;;;16.12;8.13;;;;;;;6.86;57.58;99762.34;1773409;80;21115;-73
2022/05/11 01:54:10;;;;;;;17.65;8.05;;;;;;;6.83;57.48;99762.34;1768903;80;20993;-77
2022/05/11 01:56:41;;;;;;;18.73;8.25;;;;;;;6.78;57.48;99762.39;1777573;80;21033;-75
2022/05/11 01:59:08;;;;;;;14.40;7.65;;;;;;;6.76;57.46;99765.97;1777121;80;21053;-71
2022/05/11 02:01:35;;;;;;;24.98;7.92;;;;;;;6.70;57.42;99756.43;1780614;79;21100;-75
2022/05/11 02:04:01;;;;;;;16.12;7.62;;;;;;;6.66;57.63;99753.19;1774928;79;21284;-76
2022/05/11 02:09:16;;;;;;;14.90;8.65;;;;;;;6.60;57.91;99759.83;1771652;80;21025;-74
2022/05/11 02:11:43;;;;;;;17.75;8.15;;;;;;;6.58;58.10;99754.64;1775365;79;21037;-74
2022/05/11 02:14:11;;;;;;;17.52;7.92;;;;;;;6.56;58.09;99759.05;1773909;80;21061;-76
2022/05/11 02:16:41;;;;;;;17.23;8.80;;;;;;;6.52;58.27;99757.14;1778026;80;21826;-75
2022/05/11 02:19:08;;;;;;;16.32;8.03;;;;;;;6.47;58.41;99753.91;1780511;80;21029;-74
2022/05/11 02:21:36;;;;;;;15.38;8.53;;;;;;;6.47;58.37;99755.27;1775993;80;21029;-75
2022/05/11 02:24:03;;;;;;;19.55;8.40;;;;;;;6.47;58.81;99749.80;1779802;80;21214;-74
2022/05/11 02:26:31;;;;;;;17.70;8.85;;;;;;;6.51;59.04;99756.89;1775770;80;21538;-74
2022/05/11 02:28:59;;;;;;;18.52;8.70;;;;;;;6.52;59.01;99755.77;1732117;80;21306;-76
2022/05/11 02:31:28;;;;;;;19.02;7.97;;;;;;;6.48;58.91;99751.45;1782795;80;21020;-75
2022/05/11 02:33:57;;;;;;;19.45;8.45;;;;;;;6.47;58.88;99743.50;1775475;79;21482;-73
2022/05/11 02:36:24;;;;;;;21.50;9.28;;;;;;;6.49;59.08;99752.24;1783168;79;21036;-75
2022/05/11 02:38:53;;;;;;;19.25;9.35;;;;;;;6.50;59.10;99749.22;1781191;80;21051;-75
2022/05/11 02:41:23;;;;;;;18.15;7.95;;;;;;;6.52;59.27;99755.23;1773839;80;21224;-70
2022/05/11 02:43:50;;;;;;;25.12;8.25;;;;;;;6.53;59.28;99755.52;1776577;80;21485;-72
2022/05/11 02:46:18;;;;;;;19.55;8.28;;;;;;;6.52;59.09;99753.86;1766465;80;21088;-75
2022/05/11 02:48:46;;;;;;;17.12;8.20;;;;;;;6.52;59.04;99755.77;1772635;80;21036;-75
2022/05/11 02:51:13;;;;;;;18.42;8.50;;;;;;;6.51;59.16;99750.05;1775602;80;21605;-73
2022/05/11 02:53:40;;;;;;;18.07;8.00;;;;;;;6.51;59.29;99748.67;1773563;80;21104;-73
2022/05/11 02:56:07;;;;;;;23.18;7.87;;;;;;;6.50;59.39;99746.48;1775240;80;21025;-75
2022/05/11 02:58:34;;;;;;;22.58;8.23;;;;;;;6.44;59.45;99743.53;1772661;80;22020;-75
2022/05/11 03:01:02;;;;;;;15.28;8.35;;;;;;;6.40;59.91;99745.19;1775417;80;21072;-69
2022/05/11 03:03:33;;;;;;;19.67;8.53;;;;;;;6.43;60.15;99745.44;1775946;80;20993;-76
2022/05/11 03:05:57;;;;;;;18.27;8.70;;;;;;;6.47;60.25;99746.23;1772246;80;21278;-76
2022/05/11 03:08:24;;;;;;;16.87;8.40;;;;;;;6.51;60.48;99752.23;1775177;80;20997;-75
2022/05/11 03:10:51;;;;;;;15.70;8.78;;;;;;;6.54;60.46;99743.45;1773170;80;21049;-73
2022/05/11 03:13:18;;;;;;;23.32;8.95;;;;;;;6.58;60.24;99749.96;1773678;80;20985;-76
2022/05/11 03:15:45;;;;;;;14.53;8.38;;;;;;;6.63;59.97;99744.19;1762024;80;21063;-75
2022/05/11 03:18:12;;;;;;;17.15;7.80;;;;;;;6.65;59.77;99750.20;1773049;80;21864;-74
2022/05/11 03:20:39;;;;;;;18.40;8.93;;;;;;;6.67;59.46;99748.80;1771732;80;21315;-76
2022/05/11 03:23:06;;;;;;;22.50;8.15;;;;;;;6.65;59.21;99749.63;1772375;80;21003;-76
2022/05/11 03:25:34;;;;;;;17.62;7.58;;;;;;;6.67;59.35;99753.48;1771128;80;21056;-75
2022/05/11 03:28:01;;;;;;;18.65;8.53;;;;;;;6.68;59.22;99750.98;1773535;80;21071;-73
2022/05/11 03:30:29;;;;;;;17.98;8.63;;;;;;;6.72;59.33;99749.30;1780725;80;21260;-75
2022/05/11 03:35:42;;;;;;;19.95;8.00;;;;;;;6.72;59.62;99743.81;1772567;80;21076;-77
2022/05/11 03:38:09;;;;;;;18.82;8.10;;;;;;;6.78;59.99;99746.79;1780409;80;21485;-76
2022/05/11 03:40:37;;;;;;;18.62;8.55;;;;;;;6.84;59.85;99755.75;1780926;80;21064;-70
2022/05/11 03:43:05;;;;;;;18.80;8.60;;;;;;;6.95;59.48;99756.48;1780742;80;21222;-74
2022/05/11 03:48:09;;;;;;;13.90;7.25;;;;;;;7.08;59.39;99761.81;1773318;80;20986;-75
2022/05/11 03:50:38;;;;;;;18.35;6.67;;;;;;;7.15;59.37;99760.92;1772763;80;20970;-74
2022/05/11 03:53:05;;;;;;;17.62;8.73;;;;;;;7.25;59.30;99761.92;1769588;80;21005;-72
2022/05/11 03:55:33;;;;;;;24.90;8.08;;;;;;;7.36;59.14;99766.17;1775269;80;21150;-74
2022/05/11 03:58:01;;;;;;;23.52;7.87;;;;;;;7.47;59.28;99766.05;1773008;80;21033;-76
2022/05/11 04:00:32;;;;;;;16.52;6.70;;;;;;;7.54;59.20;99771.43;1775017;79;21072;-74
2022/05/11 04:03:00;;;;;;;14.40;7.17;;;;;;;7.59;59.18;99767.80;1776119;80;21494;-74
2022/05/11 04:05:28;;;;;;;14.63;7.08;;;;;;;7.64;59.10;99766.94;1774916;80;21061;-75
2022/05/11 04:07:56;;;;;;;17.65;6.87;;;;;;;7.76;57.80;99763.19;1778497;80;21044;-73
2022/05/11 04:10:22;;;;;;;14.33;6.60;;;;;;;7.93;57.29;99766.00;1773423;80;20998;-75
2022/05/11 04:12:53;;;;;;;12.93;6.35;;;;;;;8.12;56.94;99774.80;1772543;80;21022;-76
2022/05/11 04:15:19;;;;;;;16.93;7.20;;;;;;;8.29;56.37;99768.75;1776773;80;21482;-76
2022/05/11 04:17:46;;;;;;;20.05;6.05;;;;;;;8.44;55.99;99771.01;1774215;80;21053;-75
2022/05/11 04:20:18;;;;;;;17.17;5.87;;;;;;;8.59;55.40;99775.45;1773105;80;22044;-76
2022/05/11 04:22:47;;;;;;;16.05;6.42;;;;;;;8.70;55.08;99772.78;1770258;80;21060;-74
2022/05/11 04:25:15;;;;;;;14.63;6.83;;;;;;;8.82;54.72;99769.55;1772801;80;20966;-75
2022/05/11 04:27:46;;;;;;;16.30;6.90;;;;;;;8.95;54.51;99775.39;1774732;80;20978;-75
2022/05/11 04:30:17;;;;;;;10.90;5.35;;;;;;;9.06;54.01;99776.83;1773853;80;21126;-74
2022/05/11 04:32:44;;;;;;;18.55;5.50;;;;;;;9.17;53.95;99774.70;1774605;80;21689;-75
2022/05/11 04:35:11;;;;;;;12.15;5.22;;;;;;;9.28;53.64;99774.52;1775951;80;21076;-74
2022/05/11 04:37:39;;;;;;;13.45;4.92;;;;;;;9.39;53.02;99775.94;1773115;80;21013;-73
2022/05/11 04:40:11;;;;;;;15.60;4.80;;;;;;;9.50;52.64;99775.17;1770668;80;21517;-70
2022/05/11 04:42:39;;;;;;;16.23;4.85;;;;;;;9.59;52.13;99773.88;1773752;80;21518;-75
2022/05/11 04:45:07;;;;;;;16.27;4.45;;;;;;;9.71;51.26;99778.85;1769472;80;21735;-73
2022/05/11 04:47:36;;;;;;;17.85;5.22;;;;;;;9.79;50.95;99769.87;1774304;80;21509;-74
2022/05/11 04:50:06;;;;;;;10.88;4.17;;;;;;;9.89;50.67;99767.48;1773862;80;20989;-75
2022/05/11 04:52:34;;;;;;;14.10;4.00;;;;;;;9.98;49.87;99764.23;1774155;80;20997;-76
2022/05/11 04:55:03;;;;;;;14.68;4.10;;;;;;;10.08;49.02;99765.92;1776052;80;21607;-74
2022/05/11 04:57:30;;;;;;;14.13;3.60;;;;;;;10.17;48.28;99766.00;1775342;80;21083;-75
2022/05/11 04:59:59;;;;;;;11.73;3.75;;;;;;;10.25;47.30;99765.84;1772946;80;21029;-76
2022/05/11 05:02:27;;;;;;;10.28;3.98;;;;;;;10.33;47.78;99762.89;1773818;80;21025;-74
2022/05/11 05:04:58;;;;;;;15.35;3.83;;;;;;;10.41;47.50;99764.89;1774528;80;21020;-77
2022/05/11 05:07:28;;;;;;;12.00;3.75;;;;;;;10.47;46.72;99765.03;1774447;80;21477;-74
2022/05/11 05:09:55;;;;;;;12.82;3.72;;;;;;;10.54;46.36;99761.05;1776285;80;21217;-76
2022/05/11 05:12:24;;;;;;;8.40;3.20;;;;;;;10.62;46.15;99758.91;1772992;79;21108;-76
2022/05/11 05:14:51;;;;;;;8.68;3.00;;;;;;;10.70;45.94;99759.52;1773008;80;21025;-74
2022/05/11 05:17:18;;;;;;;9.70;3.52;;;;;;;10.80;45.93;99762.58;1775221;80;21037;-74
2022/05/11 05:19:45;;;;;;;11.90;3.50;;;;;;;10.89;45.32;99765.38;1773840;80;21687;-76
2022/05/11 05:22:12;;;;;;;17.48;3.33;;;;;;;10.98;45.68;99765.43;1760545;80;21776;-75
2022/05/11 05:24:41;;;;;;;14.25;3.12;;;;;;;11.07;45.69;99761.34;1780318;79;21027;-76
2022/05/11 05:27:11;;;;;;;13.18;3.65;;;;;;;11.18;44.78;99760.48;1780915;79;20969;-74
2022/05/11 05:32:24;;;;;;;9.38;3.37;;;;;;;11.43;43.98;99765.84;1779297;80;21025;-77
2022/05/11 05:34:53;;;;;;;8.65;2.87;;;;;;;11.55;43.27;99774.06;1776611;80;21544;-77
2022/05/11 05:37:20;;;;;;;13.40;3.02;;;;;;;11.63;42.68;99769.16;1780580;80;20962;-75
2022/05/11 05:39:47;;;;;;;15.18;3.25;;;;;;;11.74;42.84;99769.65;1780822;80;21518;-76
2022/05/11 05:42:20;;;;;;;17.23;2.98;;;;;;;11.87;43.10;99770.66;1779445;80;21068;-77
2022/05/11 05:44:47;;;;;;;9.15;2.83;;;;;;;12.00;42.93;99765.30;1780550;79;21040;-70
2022/05/11 05:47:17;;;;;;;10.80;3.90;;;;;;;12.12;41.81;99766.06;1780664;80;21187;-76
2022/05/11 05:49:44;;;;;;;9.00;2.70;;;;;;;12.20;42.14;99765.25;1780287;80;21477;-73
2022/05/11 05:52:21;;;;;;;4.33;2.62;;;;;;;12.30;41.44;99765.48;1776706;80;21703;-76
2022/05/11 05:54:50;;;;;;;10.03;2.58;;;;;;;12.40;41.51;99762.98;1780378;80;21580;-74
2022/05/11 05:57:17;;;;;;;10.82;3.40;;;;;;;12.49;41.25;99766.53;1780683;80;21032;-73
2022/05/11 05:59:45;;;;;;;6.65;2.72;;;;;;;12.59;41.34;99768.14;1780243;80;21184;-74
2022/05/11 06:02:16;;;;;;;10.20;2.55;;;;;;;12.70;41.49;99767.80;1777237;80;20990;-77
2022/05/11 06:04:50;;;;;;;13.53;2.22;;;;;;;12.80;41.44;99761.92;1780581;79;21033;-73
2022/05/11 06:07:18;;;;;;;8.40;2.02;;;;;;;12.90;41.76;99767.10;1777645;80;21009;-74
2022/05/11 06:09:45;;;;;;;4.47;2.05;;;;;;;13.02;40.42;99766.98;1780817;80;21009;-74
2022/05/11 06:12:14;;;;;;;4.53;2.30;;;;;;;13.10;39.59;99759.21;1776635;80;21137;-75
2022/05/11 06:14:41;;;;;;;3.22;1.72;;;;;;;13.19;38.05;99760.56;1780702;80;21467;-75
2022/05/11 06:17:23;;;;;;;12.10;2.33;;;;;;;13.20;36.95;99754.47;1780796;80;21092;-76
2022/05/11 06:19:52;;;;;;;7.75;2.00;;;;;;;13.22;37.64;99754.36;1780410;80;21029;-74
2022/05/11 06:22:21;;;;;;;5.55;2.12;;;;;;;13.31;38.09;99757.09;1780599;80;21002;-76
2022/05/11 06:24:48;;;;;;;5.37;1.85;;;;;;;13.41;38.45;99753.13;1780614;80;21041;-71
2022/05/11 06:27:17;;;;;;;17.45;2.72;;;;;;;13.53;38.63;99749.68;1767500;80;21480;-74
2022/05/11 06:29:56;;;;;;;4.53;1.80;;;;;;;13.65;38.91;99748.95;1770329;80;20986;-72
2022/05/11 06:32:24;;;;;;;4.58;1.62;;;;;;;13.74;36.04;99758.03;1768384;80;20997;-73
2022/05/11 06:34:52;;;;;;;4.30;1.87;;;;;;;13.73;35.73;99750.06;1773053;80;21033;-70
2022/05/11 06:37:22;;;;;;;3.77;1.60;;;;;;;13.78;36.33;99751.26;1772360;81;21104;-74
2022/05/11 06:39:49;;;;;;;5.67;1.67;;;;;;;13.87;35.56;99749.22;1772251;81;21108;-74
2022/05/11 06:42:17;;;;;;;11.88;1.60;;;;;;;13.94;35.79;99739.55;1772637;80;21060;-77
2022/05/11 06:44:45;;;;;;;5.12;2.12;;;;;;;14.02;35.57;99737.88;1773772;80;21024;-76
2022/05/11 06:47:12;;;;;;;6.47;1.65;;;;;;;14.04;35.18;99739.15;1773385;80;21029;-75
2022/05/11 06:49:41;;;;;;;5.95;1.57;;;;;;;14.12;35.85;99731.94;1772013;81;21201;-78
2022/05/11 06:52:08;;;;;;;8.00;1.82;;;;;;;14.22;36.19;99729.31;1773303;80;21032;-76
2022/05/11 07:00:06;;;;;;;9.50;2.22;;;;;;;14.26;33.27;99721.95;1692837;84;21017;-75
2022/05/11 07:02:37;;;;;;;6.80;1.82;;;;;;;14.32;33.68;99721.15;1719193;83;21114;-75
2022/05/11 07:05:07;;;;;;;3.90;1.67;;;;;;;14.42;34.46;99722.68;1772120;81;20989;-75
2022/05/11 07:07:34;;;;;;;3.37;1.85;;;;;;;14.53;32.36;99718.91;1772016;80;21002;-76
2022/05/11 07:10:03;;;;;;;8.53;2.10;;;;;;;14.46;32.34;99716.13;1773168;80;21624;-77
2022/05/11 07:12:43;;;;;;;9.08;1.98;;;;;;;14.45;32.21;99707.56;1771983;80;20974;-76
2022/05/11 07:15:11;;;;;;;6.00;2.50;;;;;;;14.45;32.40;99699.84;1770878;80;21166;-75
2022/05/11 07:17:42;;;;;;;6.22;2.22;;;;;;;14.49;33.21;99700.77;1768625;81;21033;-75
2022/05/11 07:20:29;;;;;;;5.62;2.30;;;;;;;14.58;33.23;99696.52;1772242;80;21040;-74
2022/05/11 07:22:57;;;;;;;5.87;2.22;;;;;;;14.69;34.05;99692.14;1773334;80;21057;-75
2022/05/11 07:25:30;;;;;;;4.22;1.70;;;;;;;14.83;33.68;99684.92;1756174;80;21023;-75
2022/05/11 07:28:01;;;;;;;8.05;2.00;;;;;;;14.98;33.89;99692.91;1769260;80;21275;-69
2022/05/11 07:30:32;;;;;;;3.67;1.50;;;;;;;15.07;32.59;99693.02;1773004;80;20958;-74
2022/05/11 07:33:02;;;;;;;4.78;1.70;;;;;;;15.18;32.74;99703.06;1769453;80;21029;-76
2022/05/11 07:35:31;;;;;;;4.35;1.85;;;;;;;15.24;32.18;99705.61;1773373;80;21675;-72
2022/05/11 07:38:01;;;;;;;3.33;1.62;;;;;;;15.23;32.01;99702.05;1773525;80;21001;-75
2022/05/11 07:40:27;;;;;;;2.70;1.87;;;;;;;15.25;31.68;99698.32;1773662;80;21117;-74
2022/05/11 07:42:54;;;;;;;6.53;2.00;;;;;;;15.23;31.77;99685.39;1773649;80;21111;-72
2022/05/11 07:45:23;;;;;;;3.90;1.90;;;;;;;15.32;32.77;99694.97;1772806;80;21045;-72
2022/05/11 07:47:53;;;;;;;4.40;1.92;;;;;;;15.43;31.51;99690.58;1773453;80;21033;-74
2022/05/11 07:50:23;;;;;;;7.12;1.80;;;;;;;15.44;31.96;99687.20;1769363;80;21013;-75
2022/05/11 07:52:58;;;;;;;3.92;2.08;;;;;;;15.43;30.83;99684.20;1774211;80;21155;-74
2022/05/11 07:55:27;;;;;;;4.70;2.02;;;;;;;15.47;31.94;99676.81;1770027;80;21021;-75
2022/05/11 08:00:41;;;;;;;4.85;1.75;;;;;;;15.68;31.43;99686.93;1769100;80;21005;-75
2022/05/11 08:03:09;;;;;;;3.25;1.35;;;;;;;15.81;31.58;99682.17;1773323;80;21047;-73
2022/05/11 08:05:36;;;;;;;3.87;1.50;;;;;;;15.90;31.16;99680.64;1757209;80;21148;-69
2022/05/11 08:08:06;;;;;;;5.58;1.77;;;;;;;16.00;31.35;99680.74;1773221;80;21029;-75
2022/05/11 08:10:40;;;;;;;4.58;1.85;;;;;;;16.10;30.77;99674.69;1773577;80;21025;-75
2022/05/11 08:13:07;;;;;;;7.15;2.10;;;;;;;16.20;31.69;99673.36;1771173;80;20997;-75
2022/05/11 08:15:39;;;;;;;12.80;2.50;;;;;;;16.30;30.93;99672.85;1773919;80;21025;-75
2022/05/11 08:18:07;;;;;;;7.25;2.62;;;;;;;16.32;30.67;99678.63;1770665;80;21139;-77
2022/05/11 08:20:41;;;;;;;4.03;2.47;;;;;;;16.29;30.85;99667.65;1773781;79;21006;-77
2022/05/11 08:23:09;;;;;;;6.50;2.33;;;;;;;16.33;30.26;99672.70;1770811;80;21028;-75
2022/05/11 08:25:39;;;;;;;6.78;2.47;;;;;;;16.41;31.26;99670.34;1773193;79;21032;-73
2022/05/11 08:28:15;;;;;;;9.63;2.22;;;;;;;16.50;30.42;99668.79;1773572;80;21016;-75
2022/05/11 08:33:34;;;;;;;4.28;2.20;;;;;;;16.67;29.88;99666.82;1770688;80;21028;-76
2022/05/11 08:36:09;;;;;;;7.40;2.40;;;;;;;16.71;29.86;99662.74;1769638;80;21040;-76
2022/05/11 08:38:41;;;;;;;;;;;;;;;16.79;30.04;99661.75;1775368;80;21009;-75
2022/05/11 08:41:38;;;;;;;3.60;2.10;;;;;;;16.76;29.39;99654.95;1770174;80;20203;-77
2022/05/11 08:44:13;;;;;;;9.58;3.67;;;;;;;16.82;29.57;99654.68;1773467;80;21180;-76
2022/05/11 08:46:47;;;;;;;8.68;4.05;;;;;;;16.86;29.17;99651.39;1773780;80;21072;-75
2022/05/11 08:49:51;;;;;;;9.03;3.35;;;;;;;16.91;29.21;99652.50;1773249;80;20977;-70
2022/05/11 08:53:02;;;;;;;8.65;4.10;;;;;;;17.02;29.20;99651.39;1772642;80;28332;-76
2022/05/11 08:55:47;;;;;;;18.57;3.87;;;;;;;17.09;28.65;99650.20;1773132;80;20989;-75
2022/05/11 08:58:31;;;;;;;9.78;3.47;;;;;;;17.20;29.09;99649.05;1771989;80;22023;-77
2022/05/11 09:00:57;;;;;;;19.60;3.47;;;;;;;17.22;27.39;99648.67;1772844;80;20998;-77
2022/05/11 09:03:41;;;;;;;8.68;4.15;;;;;;;17.19;28.21;99633.52;1760685;80;21493;-77
2022/05/11 09:06:16;;;;;;;7.85;3.75;;;;;;;17.27;28.50;99631.12;1769119;80;20994;-75
2022/05/11 09:08:44;;;;;;;14.73;5.83;;;;;;;17.42;28.35;99623.67;1772842;80;21025;-74
2022/05/11 09:11:14;;;;;;;17.40;6.58;;;;;;;17.48;27.54;99636.95;1772984;80;21224;-75
2022/05/11 09:13:42;;;;;;;17.50;6.92;;;;;;;17.45;27.82;99626.52;1773288;80;21049;-75
2022/05/11 09:16:22;;;;;;;14.58;6.30;;;;;;;17.57;28.84;99626.17;1774005;80;20990;-76
2022/05/11 09:18:50;;;;;;;13.78;5.00;;;;;;;17.68;28.16;99626.39;1768068;80;20973;-74
2022/05/11 09:21:32;;;;;;;9.88;5.00;;;;;;;17.69;27.91;99625.23;1774097;80;21057;-74
2022/05/11 09:24:25;;;;;;;10.05;4.50;;;;;;;17.72;27.01;99620.31;1771979;80;21397;-76
2022/05/11 09:27:13;;;;;;;11.97;5.20;;;;;;;17.74;27.41;99617.37;1768176;80;21068;-74
2022/05/11 09:29:43;;;;;;;14.68;5.58;;;;;;;17.87;27.16;99621.41;1771912;80;21387;-74
2022/05/11 09:32:38;;;;;;;11.40;5.55;;;;;;;17.90;27.45;99619.27;1769094;80;21008;-78
2022/05/11 09:35:28;;;;;;;;;;;;;;;17.96;27.88;99621.19;1758207;80;21005;-76
2022/05/11 09:38:10;;;;;;;17.48;6.15;;;;;;;17.96;27.99;99617.00;1772387;80;21243;-74
2022/05/11 09:41:12;;;;;;;13.18;6.30;;;;;;;17.96;28.11;99606.64;1766997;80;21120;-78
2022/05/11 09:43:43;;;;;;;13.58;7.17;;;;;;;17.97;26.40;99602.70;1771135;80;21560;-74
2022/05/11 09:46:23;;;;;;;17.32;6.42;;;;;;;17.98;27.22;99610.48;1769246;80;21557;-74
2022/05/11 09:49:05;;;;;;;13.45;6.62;;;;;;;17.98;27.39;99608.48;1770233;80;21079;-76
2022/05/11 09:51:44;;;;;;;15.95;5.72;;;;;;;18.00;28.09;99606.14;1769146;80;22097;-75
2022/05/11 09:54:30;;;;;;;15.30;6.15;;;;;;;18.11;28.06;99604.14;1771003;80;21021;-76
2022/05/11 09:57:12;;;;;;;19.48;6.60;;;;;;;18.15;28.18;99605.64;1770965;80;21029;-76
2022/05/11 09:59:49;;;;;;;19.52;6.42;;;;;;;18.28;27.60;99604.28;1767140;80;21036;-74
2022/05/11 10:02:32;;;;;;;15.43;6.12;;;;;;;18.34;26.68;99605.58;1798124;78;21008;-75
2022/05/11 10:05:20;;;;;;;12.70;7.07;;;;;;;18.34;26.85;99596.39;1773232;80;21192;-75
2022/05/11 10:08:03;;;;;;;13.62;6.33;;;;;;;18.31;26.66;99593.77;1774401;80;21001;-76
2022/05/11 10:10:37;;;;;;;22.15;7.92;;;;;;;18.42;26.41;99593.16;1771088;80;20985;-75
2022/05/11 10:13:30;;;;;;;35.03;8.40;;;;;;;18.50;26.73;99587.92;1775022;80;21060;-76
2022/05/11 10:21:53;;;;;;;16.37;7.05;;;;;;;19.05;26.71;99590.97;1745158;81;21066;-74
2022/05/11 10:24:47;;;;;;;15.05;6.28;;;;;;;19.13;27.85;99586.89;1739395;81;21733;-76
2022/05/11 10:27:36;;;;;;;15.78;6.08;;;;;;;19.25;27.51;99585.28;1763547;80;20969;-77
2022/05/11 10:30:41;;;;;;;13.90;6.37;;;;;;;19.27;27.01;99577.91;1778944;80;21028;-74
2022/05/11 10:33:49;;;;;;;9.38;4.40;;;;;;;19.17;26.47;99584.97;1779395;80;21163;-78
2022/05/11 10:36:29;;;;;;;8.68;4.65;;;;;;;19.11;27.06;99583.08;1780654;79;20985;-75
2022/05/11 10:39:22;;;;;;;12.35;4.75;;;;;;;19.24;26.36;99578.67;1776603;80;21441;-76
2022/05/11 10:42:07;;;;;;;8.90;4.00;;;;;;;19.34;26.39;99572.44;1779777;80;21072;-74
2022/05/11 10:44:52;;;;;;;13.32;3.77;;;;;;;19.40;26.51;99579.28;1772540;80;20990;-75
2022/05/11 10:47:32;;;;;;;9.48;3.92;;;;;;;19.45;26.78;99573.95;1777302;80;21273;-68
2022/05/11 10:50:23;;;;;;;8.50;3.58;;;;;;;19.49;26.29;99559.45;1780060;79;20985;-76
2022/05/11 10:53:20;;;;;;;5.47;3.33;;;;;;;19.55;25.86;99569.70;1779746;80;21494;-77
2022/05/11 10:56:14;;;;;;;5.60;2.80;;;;;;;19.56;26.31;99562.33;1778774;80;21004;-76
2022/05/11 10:59:05;;;;;;;7.08;2.87;;;;;;;19.60;26.35;99548.99;1780138;79;21426;-76
2022/05/11 11:01:50;;;;;;;10.10;2.62;;;;;;;19.58;26.77;99550.77;1776209;80;21172;-73
2022/05/11 11:04:46;;;;;;;7.40;3.12;;;;;;;19.40;25.58;99546.34;1744200;80;21052;-69
2022/05/11 11:07:49;;;;;;;5.70;2.62;;;;;;;19.09;25.66;99550.51;1776975;80;21016;-70
2022/05/11 11:10:25;;;;;;;11.45;3.15;;;;;;;19.02;26.62;99540.66;1775576;80;21500;-77
2022/05/11 11:13:39;;;;;;;6.20;2.67;;;;;;;19.15;27.17;99542.06;1780686;80;21040;-75
2022/05/11 11:16:10;;;;;;;10.15;2.50;;;;;;;19.16;26.32;99542.27;1780065;79;21524;-69
2022/05/11 11:18:41;;;;;;;4.58;2.15;;;;;;;19.17;26.60;99543.08;1765574;80;21004;-72
2022/05/11 11:21:09;;;;;;;4.20;1.72;;;;;;;19.23;27.58;99546.36;1778989;80;21075;-77
2022/05/11 11:23:42;;;;;;;7.10;2.05;;;;;;;19.38;27.72;99548.12;1776261;80;21053;-75
2022/05/11 11:26:12;;;;;;;5.53;2.65;;;;;;;19.47;27.02;99539.45;1780934;80;20990;-77
2022/05/11 11:28:48;;;;;;;6.15;2.80;;;;;;;19.38;26.64;99538.34;1771046;80;21236;-81
2022/05/11 11:31:17;;;;;;;9.33;2.90;;;;;;;19.07;26.17;99536.15;1774110;80;20985;-77
2022/05/11 11:34:09;;;;;;;5.90;2.40;;;;;;;18.91;26.50;99528.75;1772548;80;20986;-79
2022/05/11 11:36:40;;;;;;;10.48;2.65;;;;;;;18.98;26.46;99526.07;1768863;80;21040;-77
2022/05/11 11:39:09;;;;;;;7.12;2.75;;;;;;;19.17;27.72;99525.75;1773139;80;20990;-77
2022/05/11 11:41:50;;;;;;;9.50;3.00;;;;;;;19.38;27.35;99526.39;1773419;80;21094;-75
2022/05/11 11:44:43;;;;;;;5.28;2.62;;;;;;;19.50;27.74;99524.72;1769905;80;21513;-76
2022/05/11 11:47:31;;;;;;;8.18;3.50;;;;;;;19.58;27.01;99520.83;1750345;78;21009;-78
2022/05/11 11:49:58;;;;;;;8.40;3.10;;;;;;;19.73;26.69;99507.02;1763805;80;21068;-67
2022/05/11 11:52:45;;;;;;;6.60;2.98;;;;;;;19.94;27.25;99505.64;1755988;80;21480;-77
2022/05/11 11:55:20;;;;;;;9.15;3.10;;;;;;;19.95;26.69;99510.03;1772330;80;21072;-78
2022/05/11 11:57:56;;;;;;;9.30;2.95;;;;;;;19.97;27.46;99506.26;1771034;80;21545;-75
2022/05/11 12:00:52;;;;;;;4.15;2.95;;;;;;;20.05;26.52;99500.16;1769705;80;21029;-76
2022/05/11 12:03:23;;;;;;;6.50;3.08;;;;;;;20.22;26.76;99498.70;1773648;80;20982;-74
2022/05/11 12:05:55;;;;;;;8.23;3.40;;;;;;;20.31;27.13;99501.18;1773508;80;20941;-79
2022/05/11 12:17:01;;;;;;;13.43;3.65;;;;;;;20.34;25.69;99489.80;1760434;80;21064;-78
2022/05/11 12:19:37;;;;;;;7.10;3.17;;;;;;;20.47;26.71;99486.89;1773912;80;20986;-79
2022/05/11 12:22:17;;;;;;;4.50;2.67;;;;;;;20.65;26.10;99482.84;1769671;80;21162;-78
2022/05/11 12:24:51;;;;;;;9.60;3.25;;;;;;;20.76;26.12;99486.30;1796366;78;21040;-77
2022/05/11 12:27:28;;;;;;;9.43;3.05;;;;;;;20.88;25.91;99474.75;1776244;80;21048;-76
2022/05/11 12:30:01;;;;;;;7.12;2.65;;;;;;;20.95;25.45;99480.23;1780623;80;21104;-76
2022/05/11 12:32:43;;;;;;;8.08;2.37;;;;;;;20.90;24.90;99477.97;1775398;80;21524;-75
2022/05/11 12:35:17;;;;;;;6.75;2.42;;;;;;;20.87;25.59;99474.55;1774204;80;21156;-77
2022/05/11 12:38:03;;;;;;;4.50;2.05;;;;;;;20.88;25.53;99473.97;1749077;80;20988;-76